Time;durP1;ratioP1;P1;durP2;ratioP2;P2;SDS_P1;SDS_P2;PMS_P1;PMS_P2;Temp;Humidity;BMP_temperature;BMP_pressure;BME280_temperature;BME280_humidity;BME280_pressure;Samples;Min_cycle;Max_cycle;Signal;HPM_P1;HPM_P2
2022/06/24 00:02:06;;;;;;;;;;;;;;;17.96;70.87;99914.68;1717718;83;20188;-53
2022/06/24 00:05:14;;;;;;;;;;;;;;;17.96;70.96;99922.45;1717420;83;20200;-54
2022/06/24 00:08:21;;;;;;;;;;;;;;;17.96;71.01;99921.08;1705054;83;20222;-53
2022/06/24 00:11:35;;;;;;;;;;;;;;;17.95;71.04;99923.52;1725289;82;20207;-53
2022/06/24 00:14:38;;;;;;;;;;;;;;;17.93;71.08;99924.31;1726968;82;20281;-55
2022/06/24 00:17:42;;;;;;;;;;;;;;;17.93;71.12;99926.23;1726211;82;20235;-54
2022/06/24 00:20:54;;;;;;;;;;;;;;;17.95;71.19;99932.39;1726159;82;20607;-54
2022/06/24 00:23:58;;;;;;;;;;;;;;;17.96;71.26;99928.00;1726155;82;20203;-54
2022/06/24 00:27:02;;;;;;;;;;;;;;;17.98;71.26;99938.84;1726475;82;20475;-54
2022/06/24 00:30:05;;;;;;;;;;;;;;;17.96;71.28;99928.53;1726864;82;20190;-54
2022/06/24 00:33:19;;;;;;;;;;;;;;;17.95;71.31;99924.08;1673285;84;20197;-53
2022/06/24 00:36:22;;;;;;;;;;;;;;;17.93;71.36;99920.98;1668787;85;20211;-54
2022/06/24 00:39:27;;;;;;;;;;;;;;;17.93;71.37;99920.16;1726102;82;20210;-54
2022/06/24 00:42:31;;;;;;;;;;;;;;;17.92;71.42;99927.32;1726318;82;20230;-54
2022/06/24 00:45:39;;;;;;;;;;;;;;;17.89;71.43;99932.24;1726009;82;20527;-54
2022/06/24 00:48:44;;;;;;;;;;;;;;;17.87;71.45;99925.23;1726185;82;20278;-53
2022/06/24 00:51:48;;;;;;;;;;;;;;;17.84;71.47;99925.70;1725930;83;20242;-54
2022/06/24 00:54:55;;;;;;;;;;;;;;;17.81;71.50;99935.86;1726285;82;20563;-54
2022/06/24 00:57:58;;;;;;;;;;;;;;;17.75;71.51;99932.12;1725967;83;20199;-53
2022/06/24 01:01:02;;;;;;;;;;;;;;;17.71;71.56;99940.56;1725953;82;20199;-54
2022/06/24 01:04:10;;;;;;;;;;;;;;;17.69;71.64;99937.73;1725914;83;20215;-53
2022/06/24 01:07:14;;;;;;;;;;;;;;;17.68;71.71;99938.80;1723588;82;20222;-55
2022/06/24 01:10:18;;;;;;;;;;;;;;;17.65;71.68;99942.88;1725491;83;20594;-54
2022/06/24 01:13:23;;;;;;;;;;;;;;;17.60;71.73;99933.04;1710686;83;20242;-54
2022/06/24 01:16:30;;;;;;;;;;;;;;;17.59;71.77;99940.20;1722997;83;20204;-53
2022/06/24 01:19:34;;;;;;;;;;;;;;;17.57;71.85;99940.95;1716462;83;20595;-54
2022/06/24 01:22:38;;;;;;;;;;;;;;;17.58;71.94;99942.67;1711483;83;20185;-54
2022/06/24 01:25:43;;;;;;;;;;;;;;;17.58;71.96;99944.05;1717834;83;20204;-55
2022/06/24 01:28:51;;;;;;;;;;;;;;;17.56;71.96;99936.52;1700745;83;20208;-55
2022/06/24 01:31:54;;;;;;;;;;;;;;;17.55;72.04;99943.95;1678117;85;20211;-54
2022/06/24 01:34:59;;;;;;;;;;;;;;;17.55;72.04;99944.52;1682300;85;20555;-54
2022/06/24 01:38:02;;;;;;;;;;;;;;;17.54;72.06;99938.66;1715573;83;20521;-55
2022/06/24 01:41:06;;;;;;;;;;;;;;;17.53;72.10;99943.89;1715304;84;20537;-54
2022/06/24 01:44:11;;;;;;;;;;;;;;;17.52;72.08;99943.04;1716431;83;20196;-55
2022/06/24 01:47:16;;;;;;;;;;;;;;;17.47;72.08;99943.45;1717751;83;20271;-54
2022/06/24 01:50:20;;;;;;;;;;;;;;;17.43;72.13;99938.01;1717690;83;20269;-55
2022/06/24 01:53:24;;;;;;;;;;;;;;;17.40;72.16;99948.16;1717552;83;20208;-54
2022/06/24 01:56:28;;;;;;;;;;;;;;;17.35;72.19;99943.85;1717705;83;20224;-54
2022/06/24 01:59:32;;;;;;;;;;;;;;;17.30;72.26;99943.72;1717670;83;20192;-54
2022/06/24 02:02:36;;;;;;;;;;;;;;;17.28;72.34;99939.77;1717674;83;20200;-53
2022/06/24 02:05:42;;;;;;;;;;;;;;;17.26;72.36;99944.71;1717719;83;20196;-55
2022/06/24 02:08:46;;;;;;;;;;;;;;;17.24;72.40;99936.31;1716812;82;20568;-53
2022/06/24 02:15:13;;;;;;;;;;;;;;;17.20;72.46;99938.72;1717632;83;20204;-53
2022/06/24 02:18:18;;;;;;;;;;;;;;;17.19;72.55;99923.70;1717609;83;20204;-55
2022/06/24 02:21:23;;;;;;;;;;;;;;;17.19;72.63;99922.32;1717719;83;20196;-54
2022/06/24 02:24:27;;;;;;;;;;;;;;;17.20;72.70;99929.56;1717615;83;20204;-54
2022/06/24 02:27:32;;;;;;;;;;;;;;;17.21;72.75;99934.02;1717671;83;20204;-54
2022/06/24 02:30:37;;;;;;;;;;;;;;;17.23;72.82;99931.87;1717733;83;20548;-54
2022/06/24 02:33:41;;;;;;;;;;;;;;;17.25;72.83;99940.80;1717728;83;20192;-54
2022/06/24 02:36:46;;;;;;;;;;;;;;;17.27;72.87;99937.23;1717704;83;20236;-54
2022/06/24 02:39:51;;;;;;;;;;;;;;;17.27;72.87;99943.62;1717700;83;20275;-54
2022/06/24 02:43:03;;;;;;;;;;;;;;;17.28;72.90;99943.92;1717460;83;20240;-54
2022/06/24 02:46:10;;;;;;;;;;;;;;;17.30;72.96;99943.72;1717264;83;20690;-54
2022/06/24 02:49:16;;;;;;;;;;;;;;;17.32;73.00;99944.31;1716876;83;20216;-55
2022/06/24 02:52:21;;;;;;;;;;;;;;;17.35;73.01;99938.31;1716999;83;20220;-54
2022/06/24 02:55:26;;;;;;;;;;;;;;;17.37;73.03;99952.78;1717079;83;20215;-54
2022/06/24 02:58:32;;;;;;;;;;;;;;;17.37;73.04;99944.48;1717205;82;20236;-54
2022/06/24 03:01:37;;;;;;;;;;;;;;;17.42;73.12;99947.41;1717126;83;20243;-53
2022/06/24 03:04:41;;;;;;;;;;;;;;;17.44;73.11;99944.73;1717155;83;20216;-53
2022/06/24 03:07:46;;;;;;;;;;;;;;;17.46;73.17;99943.97;1717054;83;20251;-53
2022/06/24 03:10:51;;;;;;;;;;;;;;;17.52;73.21;99940.83;1686303;85;20246;-53
2022/06/24 03:13:56;;;;;;;;;;;;;;;17.54;73.21;99937.27;1679121;85;20206;-55
2022/06/24 03:17:00;;;;;;;;;;;;;;;17.59;73.29;99936.05;1655114;86;20185;-54
2022/06/24 03:20:05;;;;;;;;;;;;;;;17.65;73.37;99944.80;1675184;85;20547;-54
2022/06/24 03:23:09;;;;;;;;;;;;;;;17.70;73.43;99941.66;1648918;86;20312;-54
2022/06/24 03:26:13;;;;;;;;;;;;;;;17.76;73.48;99944.88;1648170;87;20213;-53
2022/06/24 03:29:19;;;;;;;;;;;;;;;17.84;73.54;99945.08;1648243;87;20237;-54
2022/06/24 03:32:24;;;;;;;;;;;;;;;17.92;73.55;99949.48;1669686;84;20219;-52
2022/06/24 03:35:29;;;;;;;;;;;;;;;17.98;73.56;99948.53;1706694;83;20209;-55
2022/06/24 03:38:33;;;;;;;;;;;;;;;18.03;73.55;99949.50;1702840;83;20208;-54
2022/06/24 03:41:41;;;;;;;;;;;;;;;18.06;73.57;99949.03;1711552;84;20549;-53
2022/06/24 03:44:45;;;;;;;;;;;;;;;18.12;73.63;99956.96;1711467;84;20185;-53
2022/06/24 03:47:49;;;;;;;;;;;;;;;18.15;73.65;99967.04;1688432;85;20245;-54
2022/06/24 03:50:54;;;;;;;;;;;;;;;18.15;73.62;99972.58;1700359;84;20220;-54
2022/06/24 03:53:59;;;;;;;;;;;;;;;18.14;73.65;99973.64;1710857;84;20189;-54
2022/06/24 03:57:02;;;;;;;;;;;;;;;18.12;73.69;99969.42;1711899;83;20197;-55
2022/06/24 04:00:09;;;;;;;;;;;;;;;18.10;73.70;99970.19;1711870;84;20208;-54
2022/06/24 04:03:15;;;;;;;;;;;;;;;18.09;73.76;99976.83;1692651;84;20203;-54
2022/06/24 04:06:19;;;;;;;;;;;;;;;18.11;73.90;99972.73;1711827;83;20209;-55
2022/06/24 04:09:22;;;;;;;;;;;;;;;18.16;73.91;99974.79;1714719;81;20532;-53
2022/06/24 04:12:29;;;;;;;;;;;;;;;18.21;73.96;99983.25;1743659;81;20241;-54
2022/06/24 04:15:33;;;;;;;;;;;;;;;18.31;74.09;99975.22;1743532;82;20570;-53
2022/06/24 04:18:40;;;;;;;;;;;;;;;18.45;74.14;99983.68;1743773;82;20249;-53
2022/06/24 04:21:45;;;;;;;;;;;;;;;18.59;74.12;99983.77;1743173;82;20505;-54
2022/06/24 04:24:49;;;;;;;;;;;;;;;18.70;74.12;99986.58;1743280;82;20210;-54
2022/06/24 04:27:53;;;;;;;;;;;;;;;18.82;74.10;99994.94;1742391;82;20233;-54
2022/06/24 04:30:58;;;;;;;;;;;;;;;18.94;74.08;99995.78;1743715;82;20186;-54
2022/06/24 04:34:04;;;;;;;;;;;;;;;19.01;74.01;99995.97;1743325;82;20237;-54
2022/06/24 04:37:07;;;;;;;;;;;;;;;19.07;73.99;99999.20;1680132;85;20292;-54
2022/06/24 04:40:18;;;;;;;;;;;;;;;19.08;73.82;99996.70;1665304;85;20199;-53
2022/06/24 04:43:22;;;;;;;;;;;;;;;19.05;73.81;99998.58;1680092;85;20554;-53
2022/06/24 04:46:26;;;;;;;;;;;;;;;19.04;73.94;99999.64;1668139;85;20207;-54
2022/06/24 04:49:30;;;;;;;;;;;;;;;19.04;73.99;100001.03;1675579;86;20215;-53
2022/06/24 04:52:36;;;;;;;;;;;;;;;19.05;74.04;100006.91;1687207;82;20557;-54
2022/06/24 04:55:40;;;;;;;;;;;;;;;19.07;74.03;100013.59;1770733;81;20563;-54
2022/06/24 04:58:46;;;;;;;;;;;;;;;19.07;74.04;100008.91;1774213;81;20203;-55
2022/06/24 05:01:51;;;;;;;;;;;;;;;19.18;74.17;100006.68;1733970;80;20533;-54
2022/06/24 05:04:58;;;;;;;;;;;;;;;19.36;74.24;100004.89;1717054;83;20216;-54
2022/06/24 05:08:03;;;;;;;;;;;;;;;19.52;74.19;100009.16;1722880;80;20573;-55
2022/06/24 05:11:07;;;;;;;;;;;;;;;19.67;74.18;100012.30;1763896;79;20251;-56
2022/06/24 05:14:15;;;;;;;;;;;;;;;19.79;74.15;100010.89;1725579;82;20265;-55
2022/06/24 05:17:19;;;;;;;;;;;;;;;19.91;74.06;100007.53;1735149;80;20214;-56
2022/06/24 05:20:29;;;;;;;;;;;;;;;19.92;73.90;100007.83;1747048;80;20245;-55
2022/06/24 05:23:38;;;;;;;;;;;;;;;19.92;73.86;100027.27;1701372;82;20218;-55
2022/06/24 05:26:45;;;;;;;;;;;;;;;19.91;73.89;100020.89;1734162;80;20221;-55
2022/06/24 05:29:52;;;;;;;;;;;;;;;19.91;73.90;100027.84;1743508;80;20186;-55
2022/06/24 05:32:58;;;;;;;;;;;;;;;19.88;73.84;100023.31;1747907;80;20256;-54
2022/06/24 05:36:01;;;;;;;;;;;;;;;19.91;74.02;100020.04;1759911;80;20563;-54
2022/06/24 05:39:09;;;;;;;;;;;;;;;20.09;74.23;100029.04;1747887;79;20258;-54
2022/06/24 05:42:16;;;;;;;;;;;;;;;20.22;74.16;100009.87;1758605;80;20290;-55
2022/06/24 05:45:21;;;;;;;;;;;;;;;20.40;74.20;100001.35;1687479;82;20211;-55
2022/06/24 05:48:25;;;;;;;;;;;;;;;20.59;74.28;100014.81;1673765;86;20833;-56
2022/06/24 05:51:30;;;;;;;;;;;;;;;20.78;74.22;100015.42;1690586;84;20212;-55
2022/06/24 05:57:57;;;;;;;;;;;;;;;20.89;73.93;100017.83;1711707;82;20246;-55
2022/06/24 06:01:03;;;;;;;;;;;;;;;20.87;73.70;100016.69;1697658;82;20209;-55
2022/06/24 06:04:06;;;;;;;;;;;;;;;20.78;73.61;100016.81;1739767;82;20214;-56
2022/06/24 06:07:12;;;;;;;;;;;;;;;20.74;73.69;100008.66;1740721;82;20222;-55
2022/06/24 06:10:17;;;;;;;;;;;;;;;20.73;73.75;100016.18;1742415;82;20250;-55
2022/06/24 06:13:23;;;;;;;;;;;;;;;20.77;73.79;100016.53;1728511;81;20203;-54
2022/06/24 06:16:28;;;;;;;;;;;;;;;20.79;73.75;99994.84;1727137;83;20564;-55
2022/06/24 06:19:34;;;;;;;;;;;;;;;20.92;73.89;99986.71;1727506;82;20578;-55
2022/06/24 06:22:39;;;;;;;;;;;;;;;21.03;73.95;99976.92;1723026;82;20203;-54
2022/06/24 06:25:45;;;;;;;;;;;;;;;21.12;73.92;99986.53;1738115;81;20216;-54
2022/06/24 06:28:50;;;;;;;;;;;;;;;21.16;73.89;99986.34;1739158;81;20267;-54
2022/06/24 06:31:55;;;;;;;;;;;;;;;21.22;73.89;99992.27;1715995;81;20199;-55
2022/06/24 06:35:02;;;;;;;;;;;;;;;21.29;73.95;100001.84;1774840;80;20208;-54
2022/06/24 06:38:07;;;;;;;;;;;;;;;21.33;73.94;100006.64;1743585;81;20210;-54
2022/06/24 06:41:11;;;;;;;;;;;;;;;21.40;73.92;100015.69;1725658;81;20225;-56
2022/06/24 06:44:16;;;;;;;;;;;;;;;21.47;73.82;100013.55;1733266;81;20215;-53
2022/06/24 06:47:21;;;;;;;;;;;;;;;21.43;73.61;100017.10;1717943;81;20585;-54
2022/06/24 06:50:27;;;;;;;;;;;;;;;21.36;73.67;100022.84;1700322;84;20201;-54
2022/06/24 06:53:33;;;;;;;;;;;;;;;21.27;73.61;100013.24;1656658;84;20235;-55
2022/06/24 06:56:39;;;;;;;;;;;;;;;21.20;73.62;100009.77;1675965;84;20612;-56
2022/06/24 06:59:44;;;;;;;;;;;;;;;21.13;73.59;100020.25;1673333;84;20557;-54
2022/06/24 07:02:49;;;;;;;;;;;;;;;21.05;73.65;100022.06;1687555;84;20218;-55
2022/06/24 07:05:55;;;;;;;;;;;;;;;21.07;73.84;100022.66;1699875;83;20293;-56
2022/06/24 07:09:01;;;;;;;;;;;;;;;21.13;73.78;100035.56;1721429;83;20219;-56
2022/06/24 07:12:05;;;;;;;;;;;;;;;21.09;73.72;100040.50;1692810;83;20236;-55
2022/06/24 07:15:14;;;;;;;;;;;;;;;21.04;73.71;100027.88;1695046;83;20212;-55
2022/06/24 07:18:16;;;;;;;;;;;;;;;20.99;73.78;100030.57;1659307;86;20298;-56
2022/06/24 07:21:20;;;;;;;;;;;;;;;21.03;73.90;100038.16;1659307;86;20208;-56
2022/06/24 07:24:25;;;;;;;;;;;;;;;21.05;73.88;100038.77;1659694;86;20205;-56
2022/06/24 07:27:30;;;;;;;;;;;;;;;21.06;73.90;100034.05;1671043;84;20561;-55
2022/06/24 07:30:34;;;;;;;;;;;;;;;21.14;74.03;100025.25;1668469;85;20219;-57
2022/06/24 07:33:41;;;;;;;;;;;;;;;21.23;74.09;100023.75;1647476;85;20609;-58
2022/06/24 07:36:47;;;;;;;;;;;;;;;21.24;74.02;100026.82;1674864;83;20503;-56
2022/06/24 07:39:52;;;;;;;;;;;;;;;21.29;74.12;100019.41;1663314;85;20393;-58
2022/06/24 07:42:56;;;;;;;;;;;;;;;21.38;74.20;100030.41;1713030;84;20215;-56
2022/06/24 07:46:00;;;;;;;;;;;;;;;21.44;74.13;100036.34;1743825;82;20598;-56
2022/06/24 07:49:05;;;;;;;;;;;;;;;21.42;74.00;100039.10;1704743;82;20220;-56
2022/06/24 07:52:10;;;;;;;;;;;;;;;21.37;73.96;100042.66;1696906;82;20217;-54
2022/06/24 07:58:40;;;;;;;;;;;;;;;21.29;74.01;100040.30;1685147;85;20214;-56
2022/06/24 08:01:49;;;;;;;;;;;;;;;21.19;74.01;100026.20;1684651;85;20222;-55
2022/06/24 08:04:54;;;;;;;;;;;;;;;21.09;74.02;100024.63;1686511;85;20218;-59
2022/06/24 08:07:58;;;;;;;;;;;;;;;20.99;74.13;100031.42;1690168;82;20635;-58
2022/06/24 08:11:05;;;;;;;;;;;;;;;20.89;74.17;100027.03;1686032;85;20285;-57
2022/06/24 08:14:09;;;;;;;;;;;;;;;20.80;74.25;100018.81;1736217;78;20206;-59
2022/06/24 08:17:14;;;;;;;;;;;;;;;20.74;74.37;100005.88;1751534;80;20559;-59
2022/06/24 08:20:19;;;;;;;;;;;;;;;20.72;74.57;100002.52;1750446;79;20595;-59
2022/06/24 08:23:24;;;;;;;;;;;;;;;20.75;74.62;99999.23;1772116;80;20263;-60
2022/06/24 08:26:30;;;;;;;;;;;;;;;20.80;74.70;99997.94;1774799;80;20480;-58
2022/06/24 08:29:37;;;;;;;;;;;;;;;20.92;74.79;100002.87;1743352;80;20265;-59
2022/06/24 08:32:44;;;;;;;;;;;;;;;21.03;74.77;99991.38;1774294;81;20459;-58
2022/06/24 08:35:48;;;;;;;;;;;;;;;21.17;74.76;99994.97;1774591;81;20540;-58
2022/06/24 08:38:53;;;;;;;;;;;;;;;21.39;74.85;99991.70;1746901;80;20221;-60
2022/06/24 08:42:00;;;;;;;;;;;;;;;21.55;74.69;99996.97;1745241;82;20245;-57
2022/06/24 08:45:08;;;;;;;;;;;;;;;21.58;74.54;100009.81;1764616;80;20196;-58
2022/06/24 08:48:18;;;;;;;;;;;;;;;21.59;74.58;99996.20;1747172;80;20271;-58
2022/06/24 08:51:23;;;;;;;;;;;;;;;21.57;74.45;99972.45;1719811;80;20327;-55
2022/06/24 08:54:38;;;;;;;;;;;;;;;21.49;74.42;99966.79;1762423;80;20227;-56
2022/06/24 08:57:42;;;;;;;;;;;;;;;21.38;74.39;99979.42;1728388;81;20233;-57
2022/06/24 09:00:39;;;;;;;;;;;;;;;21.24;74.48;99968.34;1742625;81;20217;-59
2022/06/24 09:03:48;;;;;;;;;;;;;;;21.22;74.60;99968.61;1765687;80;20247;-57
2022/06/24 09:06:54;;;;;;;;;;;;;;;21.19;74.61;99970.52;1749924;80;20299;-58
2022/06/24 09:10:10;;;;;;;;;;;;;;;21.17;74.68;99977.45;1736060;80;20204;-58
2022/06/24 09:13:15;;;;;;;;;;;;;;;21.14;74.74;99976.53;1716661;82;20247;-57
2022/06/24 09:16:21;;;;;;;;;;;;;;;21.14;74.87;99975.99;1681582;82;20592;-57
2022/06/24 09:19:25;;;;;;;;;;;;;;;21.17;74.89;99970.48;1693170;82;20520;-58
2022/06/24 09:22:31;;;;;;;;;;;;;;;21.16;74.84;99977.98;1701497;84;20270;-57
2022/06/24 09:25:38;;;;;;;;;;;;;;;21.17;74.84;99969.91;1705417;84;20296;-56
2022/06/24 09:28:43;;;;;;;;;;;;;;;21.17;74.84;99976.05;1683058;84;20201;-57
2022/06/24 09:31:49;;;;;;;;;;;;;;;21.15;74.83;99985.20;1683380;84;20268;-54
2022/06/24 09:35:15;;;;;;;;;;;;;;;21.09;74.83;99982.86;1700808;84;20212;-54
2022/06/24 09:38:25;;;;;;;;;;;;;;;21.01;74.74;99990.81;1683210;84;20245;-55
2022/06/24 09:41:28;;;;;;;;;;;;;;;20.82;74.56;99993.52;1705524;81;20581;-54
2022/06/24 09:44:33;;;;;;;;;;;;;;;20.64;74.59;99991.80;1705858;84;20228;-54
2022/06/24 09:47:46;;;;;;;;;;;;;;;20.53;74.74;99994.10;1709963;84;20576;-55
2022/06/24 09:50:52;;;;;;;;;;;;;;;20.42;74.79;99998.61;1701075;84;20671;-55
2022/06/24 09:53:58;;;;;;;;;;;;;;;20.33;74.79;100000.64;1702958;82;20253;-54
2022/06/24 09:57:03;;;;;;;;;;;;;;;20.19;74.63;100012.62;1702972;84;20280;-54
2022/06/24 10:03:38;;;;;;;;;;;;;;;19.85;74.74;100001.58;1727446;82;20250;-54
2022/06/24 10:06:43;;;;;;;;;;;;;;;19.72;74.79;100004.61;1704068;82;20640;-55
2022/06/24 10:09:50;;;;;;;;;;;;;;;19.64;74.97;99993.87;1682024;82;20209;-55
2022/06/24 10:12:59;;;;;;;;;;;;;;;19.65;75.21;100009.44;1692612;84;20225;-54
2022/06/24 10:16:08;;;;;;;;;;;;;;;19.70;75.42;100005.39;1712493;81;20214;-53
2022/06/24 10:19:16;;;;;;;;;;;;;;;19.73;75.45;100009.92;1753532;80;20293;-55
2022/06/24 10:22:50;;;;;;;;;;;;;;;19.72;75.43;100003.22;1725126;82;20215;-55
2022/06/24 10:26:03;;;;;;;;;;;;;;;19.70;75.49;100002.61;1707205;82;20259;-55
2022/06/24 10:29:11;;;;;;;;;;;;;;;19.65;75.56;100009.44;1712166;84;20216;-56
2022/06/24 10:32:16;;;;;;;;;;;;;;;19.63;75.62;100004.70;1713709;84;20246;-56
2022/06/24 10:35:22;;;;;;;;;;;;;;;19.58;75.65;100000.41;1713782;84;20212;-54
2022/06/24 10:38:32;;;;;;;;;;;;;;;19.52;75.68;100004.16;1712710;84;20560;-55
2022/06/24 10:41:46;;;;;;;;;;;;;;;19.46;75.77;100016.22;1713481;84;20204;-56
2022/06/24 10:45:07;;;;;;;;;;;;;;;19.38;75.72;100019.39;1713870;84;20212;-57
2022/06/24 10:48:13;;;;;;;;;;;;;;;19.25;75.73;100022.66;1732718;81;20199;-56
2022/06/24 10:51:23;;;;;;;;;;;;;;;19.18;75.82;100024.72;1747885;80;20572;-55
2022/06/24 10:54:29;;;;;;;;;;;;;;;19.15;75.88;100025.73;1710985;83;20212;-56
2022/06/24 10:57:35;;;;;;;;;;;;;;;19.13;76.02;100039.85;1696376;84;20601;-56
2022/06/24 11:00:50;;;;;;;;;;;;;;;19.11;75.97;100048.95;1726446;82;20257;-56
2022/06/24 11:03:58;;;;;;;;;;;;;;;19.02;75.77;100067.57;1732501;81;20631;-57
2022/06/24 11:07:22;;;;;;;;;;;;;;;18.92;75.66;100069.53;1750733;80;20201;-58
2022/06/24 11:10:33;;;;;;;;;;;;;;;18.86;75.56;100071.88;1708859;82;20272;-56
2022/06/24 11:13:39;;;;;;;;;;;;;;;18.81;75.47;100091.69;1704167;84;20351;-56
2022/06/24 11:16:44;;;;;;;;;;;;;;;18.71;75.26;100103.91;1685143;82;20233;-56
2022/06/24 11:19:48;;;;;;;;;;;;;;;18.61;75.10;100105.00;1730700;81;20616;-56
2022/06/24 11:22:54;;;;;;;;;;;;;;;18.55;75.08;100094.30;1728605;83;20567;-56
2022/06/24 11:26:17;;;;;;;;;;;;;;;18.49;74.93;100086.92;1729515;82;20210;-56
2022/06/24 11:29:24;;;;;;;;;;;;;;;18.35;74.68;100117.78;1730641;81;20209;-57
2022/06/24 11:32:30;;;;;;;;;;;;;;;18.17;74.67;100126.95;1739531;81;20241;-58
2022/06/24 11:35:38;;;;;;;;;;;;;;;18.08;74.80;100124.71;1735250;82;20570;-57
2022/06/24 11:39:03;;;;;;;;;;;;;;;17.98;74.84;100132.20;1720316;82;20213;-57
2022/06/24 11:42:10;;;;;;;;;;;;;;;17.89;74.94;100136.33;1734687;83;20217;-55
2022/06/24 11:45:17;;;;;;;;;;;;;;;17.88;75.28;100133.27;1729735;83;20211;-55
2022/06/24 11:48:30;;;;;;;;;;;;;;;17.96;75.53;100153.73;1726343;81;20212;-56
2022/06/24 11:51:34;;;;;;;;;;;;;;;17.99;75.55;100153.80;1733299;81;20301;-56
2022/06/24 11:54:40;;;;;;;;;;;;;;;17.96;75.61;100148.73;1729268;81;20202;-56
2022/06/24 11:57:48;;;;;;;;;;;;;;;17.97;75.79;100162.34;1723428;82;20245;-55
2022/06/24 12:00:58;;;;;;;;;;;;;;;18.00;75.77;100174.91;1707043;84;20201;-57
2022/06/24 12:04:07;;;;;;;;;;;;;;;17.90;75.60;100178.20;1720179;81;20232;-56
2022/06/24 12:07:17;;;;;;;;;;;;;;;17.83;75.67;100176.88;1730838;82;20594;-56
2022/06/24 12:10:24;;;;;;;;;;;;;;;17.75;75.62;100203.47;1730339;83;20217;-57
2022/06/24 12:13:37;;;;;;;;;;;;;;;17.69;75.63;100206.29;1736512;82;20253;-57
2022/06/24 12:17:09;;;;;;;;;;;;;;;17.60;75.63;100178.59;1747678;81;20196;-56
2022/06/24 12:20:16;;;;;;;;;;;;;;;17.54;75.74;100183.62;1743233;82;20185;-55
2022/06/24 12:23:30;;;;;;;;;;;;;;;17.52;75.96;100189.37;1731204;82;20202;-56
2022/06/24 12:26:37;;;;;;;;;;;;;;;17.49;75.96;100188.45;1719482;81;20820;-56
2022/06/24 12:29:48;;;;;;;;;;;;;;;17.42;75.95;100198.71;1700418;83;20217;-58
2022/06/24 12:32:59;;;;;;;;;;;;;;;17.36;75.99;100191.84;1727507;81;20274;-57
2022/06/24 12:36:18;;;;;;;;;;;;;;;17.27;76.01;100194.55;1727157;81;20242;-56
2022/06/24 12:39:25;;;;;;;;;;;;;;;17.21;76.13;100202.36;1713039;81;20597;-57
2022/06/24 12:42:30;;;;;;;;;;;;;;;17.17;76.33;100188.67;1671004;84;20223;-57
2022/06/24 12:45:48;;;;;;;;;;;;;;;17.19;76.48;100184.60;1714402;83;20203;-58
2022/06/24 12:52:15;;;;;;;;;;;;;;;17.18;76.48;100187.06;1701189;84;20212;-57
2022/06/24 12:55:22;;;;;;;;;;;;;;;17.19;76.47;100197.05;1701075;84;20291;-58
2022/06/24 12:58:31;;;;;;;;;;;;;;;17.18;76.48;100211.11;1701348;84;20204;-60
2022/06/24 13:01:38;;;;;;;;;;;;;;;17.18;76.65;100213.87;1738210;81;20247;-58
2022/06/24 13:04:46;;;;;;;;;;;;;;;17.19;76.70;100219.70;1736020;81;20216;-57
2022/06/24 13:07:53;;;;;;;;;;;;;;;17.20;76.72;100224.19;1721692;82;20214;-58
2022/06/24 13:10:59;;;;;;;;;;;;;;;17.13;76.65;100215.92;1683576;84;20229;-57
2022/06/24 13:14:03;;;;;;;;;;;;;;;17.06;76.65;100215.66;1646758;87;20205;-56
2022/06/24 13:17:08;;;;;;;;;;;;;;;16.97;76.73;100194.84;1646149;87;20225;-56
2022/06/24 13:20:14;;;;;;;;;;;;;;;16.93;76.92;100191.70;1701901;81;20194;-54
2022/06/24 13:23:20;;;;;;;;;;;;;;;16.93;77.07;100190.84;1740267;82;20217;-55
2022/06/24 13:26:26;;;;;;;;;;;;;;;16.90;77.12;100198.20;1739438;82;20210;-55
2022/06/24 13:29:35;;;;;;;;;;;;;;;16.87;77.24;100220.20;1741175;82;20213;-55
2022/06/24 13:32:43;;;;;;;;;;;;;;;16.86;77.28;100195.55;1739820;82;20210;-53
2022/06/24 13:35:51;;;;;;;;;;;;;;;16.84;77.29;100193.56;1760347;81;20238;-55
2022/06/24 13:38:58;;;;;;;;;;;;;;;16.85;77.44;100192.48;1725012;82;20222;-56
2022/06/24 13:42:05;;;;;;;;;;;;;;;16.87;77.45;100201.41;1727108;82;20216;-54
2022/06/24 13:45:10;;;;;;;;;;;;;;;16.89;77.50;100203.39;1717514;83;20595;-54
2022/06/24 13:48:16;;;;;;;;;;;;;;;16.93;77.60;100204.66;1702166;83;20220;-55
2022/06/24 13:51:14;;;;;;;;;;;;;;;16.98;77.76;100210.39;1716696;83;20244;-55
2022/06/24 13:54:20;;;;;;;;;;;;;;;17.03;77.79;100207.81;1717520;83;20212;-55
2022/06/24 13:57:28;;;;;;;;;;;;;;;17.06;77.81;100200.45;1742039;82;20256;-55
2022/06/24 14:00:34;;;;;;;;;;;;;;;17.07;77.81;100197.98;1745755;82;20218;-55
2022/06/24 14:03:40;;;;;;;;;;;;;;;17.09;77.91;100188.41;1766170;81;20213;-55
2022/06/24 14:06:48;;;;;;;;;;;;;;;17.12;78.01;100185.20;1745894;81;20232;-54
2022/06/24 14:09:58;;;;;;;;;;;;;;;17.16;78.13;100171.74;1743036;82;20206;-55
2022/06/24 14:13:04;;;;;;;;;;;;;;;17.20;78.24;100174.39;1741674;82;20218;-54
2022/06/24 14:16:09;;;;;;;;;;;;;;;17.22;78.34;100174.47;1742641;82;20210;-54
2022/06/24 14:19:16;;;;;;;;;;;;;;;17.23;78.39;100176.19;1742181;82;20253;-56
2022/06/24 14:22:23;;;;;;;;;;;;;;;17.25;78.49;100174.58;1743071;82;20605;-56
2022/06/24 14:25:33;;;;;;;;;;;;;;;17.29;78.62;100178.58;1716887;83;20224;-56
2022/06/24 14:28:39;;;;;;;;;;;;;;;17.31;78.61;100182.83;1715816;83;20236;-57
2022/06/24 14:31:45;;;;;;;;;;;;;;;17.33;78.68;100172.92;1714933;83;20256;-56
2022/06/24 14:34:53;;;;;;;;;;;;;;;17.35;78.79;100166.60;1716351;83;20259;-56
2022/06/24 14:41:26;;;;;;;;;;;;;;;17.36;78.83;100169.70;1716488;83;20580;-54
2022/06/24 14:44:32;;;;;;;;;;;;;;;17.34;78.87;100164.91;1716733;83;20260;-54
2022/06/24 14:47:36;;;;;;;;;;;;;;;17.34;78.89;100158.00;1719347;83;20228;-55
2022/06/24 14:50:42;;;;;;;;;;;;;;;17.32;78.92;100160.13;1717602;83;20204;-54
2022/06/24 14:53:49;;;;;;;;;;;;;;;17.28;78.94;100151.98;1717181;83;20283;-54
2022/06/24 14:56:54;;;;;;;;;;;;;;;17.25;79.03;100164.89;1717005;83;20192;-54
2022/06/24 14:59:58;;;;;;;;;;;;;;;17.25;79.16;100171.25;1717116;83;20180;-54
2022/06/24 15:03:04;;;;;;;;;;;;;;;17.26;79.25;100179.87;1716848;83;20232;-55
2022/06/24 15:06:08;;;;;;;;;;;;;;;17.29;79.32;100202.95;1745246;82;20550;-55
2022/06/24 15:09:14;;;;;;;;;;;;;;;17.28;79.33;100209.53;1746927;82;20230;-54
2022/06/24 15:12:20;;;;;;;;;;;;;;;17.25;79.27;100213.31;1747211;82;20807;-54
2022/06/24 15:15:24;;;;;;;;;;;;;;;17.16;79.18;100204.94;1746417;82;20226;-54
2022/06/24 15:18:28;;;;;;;;;;;;;;;17.10;79.29;100192.00;1746825;82;20201;-54
2022/06/24 15:21:32;;;;;;;;;;;;;;;17.09;79.44;100187.03;1738158;82;20211;-54
2022/06/24 15:24:37;;;;;;;;;;;;;;;17.13;79.57;100170.28;1733131;81;20202;-55
2022/06/24 15:27:42;;;;;;;;;;;;;;;17.17;79.66;100162.39;1732744;82;20218;-55
2022/06/24 15:30:48;;;;;;;;;;;;;;;17.26;79.76;100174.88;1733103;82;20194;-54
2022/06/24 15:33:54;;;;;;;;;;;;;;;17.34;79.81;100172.69;1732420;83;20210;-54
2022/06/24 15:36:59;;;;;;;;;;;;;;;17.39;79.73;100167.86;1732765;82;20226;-54
2022/06/24 15:40:04;;;;;;;;;;;;;;;17.42;79.71;100168.80;1732377;82;20210;-54
2022/06/24 15:43:08;;;;;;;;;;;;;;;17.42;79.71;100167.41;1733149;82;20198;-55
2022/06/24 15:46:12;;;;;;;;;;;;;;;17.46;79.78;100167.28;1733949;81;20202;-54
2022/06/24 15:49:18;;;;;;;;;;;;;;;17.51;79.86;100161.93;1732943;82;20285;-54
2022/06/24 15:52:24;;;;;;;;;;;;;;;17.55;79.92;100161.80;1732743;82;20606;-54
2022/06/24 15:55:30;;;;;;;;;;;;;;;17.58;79.92;100152.48;1732675;82;20198;-54
2022/06/24 15:58:35;;;;;;;;;;;;;;;17.60;79.93;100166.13;1732412;81;20210;-55
2022/06/24 16:01:42;;;;;;;;;;;;;;;17.58;79.93;100157.20;1732746;82;20187;-54
2022/06/24 16:04:46;;;;;;;;;;;;;;;17.57;79.96;100164.64;1733555;82;20555;-55
2022/06/24 16:07:50;;;;;;;;;;;;;;;17.57;80.04;100172.95;1732506;82;20606;-55
2022/06/24 16:10:56;;;;;;;;;;;;;;;17.57;80.09;100185.94;1733165;82;20598;-55
2022/06/24 16:14:01;;;;;;;;;;;;;;;17.58;80.10;100209.80;1732960;81;20191;-55
2022/06/24 16:17:07;;;;;;;;;;;;;;;17.59;80.11;100188.80;1732340;82;20262;-55
2022/06/24 16:20:12;;;;;;;;;;;;;;;17.60;80.11;100168.90;1733278;81;20597;-55
2022/06/24 16:23:18;;;;;;;;;;;;;;;17.58;80.12;100183.49;1738588;81;20527;-54